Time;durP1;ratioP1;P1;durP2;ratioP2;P2;SDS_P1;SDS_P2;PMS_P1;PMS_P2;Temp;Humidity;BMP_temperature;BMP_pressure;BME280_temperature;BME280_humidity;BME280_pressure;Samples;Min_cycle;Max_cycle;Signal;HPM_P1;HPM_P2
2024/04/07 00:06:16;;;;;;;10.23;4.20;;;;;;;17.09;100.00;97583.31;4993080;28;20087;-85
2024/04/07 00:08:56;;;;;;;8.77;4.22;;;;;;;17.02;100.00;97565.91;4999773;28;20049;-85
2024/04/07 00:11:35;;;;;;;11.63;4.35;;;;;;;17.07;100.00;97579.88;4979974;28;20498;-85
2024/04/07 00:18:11;;;;;;;8.35;3.22;;;;;;;17.07;100.00;97577.16;5073346;28;20035;-84
2024/04/07 00:21:32;;;;;;;;;;;;;;;;;;;;;
2024/04/07 00:24:46;;;;;;;8.27;3.97;;;;;;;17.17;100.00;97590.72;5053009;28;20033;-84
2024/04/07 00:28:03;;;;;;;6.57;3.25;;;;;;;17.19;100.00;97599.56;5070869;28;20028;-84
2024/04/07 00:34:09;;;;;;;4.68;3.10;;;;;;;17.18;100.00;97600.56;5067708;28;20032;-86
2024/04/07 00:37:17;;;;;;;9.50;3.25;;;;;;;17.10;100.00;97597.69;5056316;28;20036;-84
2024/04/07 00:39:59;;;;;;;9.27;2.90;;;;;;;17.11;100.00;97608.34;5055795;28;20111;-86
2024/04/07 00:46:21;;;;;;;;;;;;;;;;;;;;;
2024/04/07 00:49:10;;;;;;;;;;;;;;;;;;;;;
2024/04/07 00:55:41;;;;;;;;;;;;;;;;;;;;;
2024/04/07 00:58:20;;;;;;;8.07;3.20;;;;;;;16.89;100.00;97623.88;5057462;28;20437;-85
2024/04/07 01:01:04;;;;;;;5.25;3.35;;;;;;;16.93;100.00;97638.81;5047926;28;20483;-83
2024/04/07 01:07:22;;;;;;;5.72;3.63;;;;;;;16.96;100.00;97625.91;5063708;28;20037;-81
2024/04/07 01:10:41;;;;;;;4.93;3.25;;;;;;;17.02;100.00;97643.41;5070021;28;20039;-83
2024/04/07 01:13:34;;;;;;;9.63;3.90;;;;;;;17.00;100.00;97626.50;5059278;28;20175;-81
2024/04/07 01:16:14;;;;;;;7.63;3.53;;;;;;;17.03;100.00;97637.03;5060991;28;20122;-82
2024/04/07 01:19:18;;;;;;;9.35;3.97;;;;;;;17.13;100.00;97646.94;5058959;28;20078;-83
2024/04/07 01:22:17;;;;;;;;;;;;;;;;;;;;;
2024/04/07 01:25:29;;;;;;;6.40;3.63;;;;;;;17.19;100.00;97637.44;5078534;28;20511;-84
2024/04/07 01:28:34;;;;;;;;;;;;;;;;;;;;;
2024/04/07 01:34:26;;;;;;;6.57;3.40;;;;;;;17.03;100.00;97632.50;5054594;28;20116;-84
2024/04/07 01:37:31;;;;;;;;;;;;;;;;;;;;;
2024/04/07 01:40:23;;;;;;;9.25;3.40;;;;;;;17.12;100.00;97636.25;5077935;28;20028;-85
2024/04/07 01:47:00;;;;;;;6.13;3.78;;;;;;;17.24;100.00;97640.56;5080193;28;20110;-83
2024/04/07 01:50:01;;;;;;;6.80;3.85;;;;;;;17.16;100.00;97643.97;5052805;28;20040;-83
2024/04/07 01:53:07;;;;;;;8.23;3.47;;;;;;;17.20;100.00;97637.28;5060118;28;20423;-83
2024/04/07 01:56:01;;;;;;;6.15;3.47;;;;;;;17.20;100.00;97633.72;5066497;28;20024;-83
2024/04/07 01:59:00;;;;;;;5.38;3.30;;;;;;;17.19;100.00;97638.28;5039685;28;20035;-83
2024/04/07 02:02:16;;;;;;;;;;;;;;;;;;;;;
2024/04/07 02:05:09;;;;;;;5.75;3.40;;;;;;;17.17;100.00;97647.50;5072624;28;20050;-83
2024/04/07 02:08:03;;;;;;;7.25;3.97;;;;;;;17.18;100.00;97643.81;5077873;28;20055;-85
2024/04/07 02:11:10;;;;;;;7.13;4.07;;;;;;;17.13;100.00;97621.75;5040561;28;20429;-84
2024/04/07 02:13:54;;;;;;;7.75;3.25;;;;;;;17.13;100.00;97637.97;5039057;28;20041;-86
2024/04/07 02:16:54;;;;;;;8.77;3.28;;;;;;;17.08;100.00;97629.38;5017122;28;20148;-86
2024/04/07 02:19:49;;;;;;;;;;;;;;;;;;;;;
2024/04/07 02:22:35;;;;;;;7.07;3.50;;;;;;;17.10;100.00;97649.88;5048204;28;20408;-85
2024/04/07 02:25:35;;;;;;;5.88;3.38;;;;;;;17.04;100.00;97645.00;5010774;28;20048;-86
2024/04/07 02:31:42;;;;;;;7.72;3.38;;;;;;;16.98;100.00;97645.53;5039535;28;20396;-82
2024/04/07 02:34:39;;;;;;;;;;;;;;;;;;;;;
2024/04/07 02:40:55;;;;;;;5.85;3.42;;;;;;;16.89;100.00;97667.09;5040204;28;20112;-83
2024/04/07 02:43:43;;;;;;;10.50;4.03;;;;;;;16.84;100.00;97653.97;5032054;28;20147;-83
2024/04/07 02:49:35;;;;;;;10.57;3.60;;;;;;;16.72;100.00;97645.06;5055927;28;20031;-82
2024/04/07 02:52:28;;;;;;;9.10;3.97;;;;;;;16.78;100.00;97652.66;5053784;28;20411;-82
2024/04/07 02:55:03;;;;;;;5.28;3.33;;;;;;;16.68;100.00;97662.53;5037803;28;20054;-82
2024/04/07 02:58:09;;;;;;;6.75;3.30;;;;;;;16.68;100.00;97667.94;5037473;28;20041;-82
2024/04/07 03:01:29;;;;;;;8.25;3.90;;;;;;;16.54;100.00;97667.34;5043037;28;20496;-83
2024/04/07 03:04:19;;;;;;;6.20;3.60;;;;;;;16.42;100.00;97668.38;5052688;28;20086;-81
2024/04/07 03:07:00;;;;;;;8.10;3.85;;;;;;;16.37;100.00;97670.59;5036703;28;20029;-82
2024/04/07 03:09:44;;;;;;;6.30;3.75;;;;;;;16.36;100.00;97677.00;5054286;28;20036;-82
2024/04/07 03:12:30;;;;;;;6.47;3.70;;;;;;;16.36;100.00;97674.28;5040823;28;20126;-83
2024/04/07 03:15:29;;;;;;;6.80;3.50;;;;;;;16.24;100.00;97673.47;5073731;28;20070;-86
2024/04/07 03:18:54;;;;;;;;;;;;;;;;;;;;;
2024/04/07 03:25:19;;;;;;;6.53;3.70;;;;;;;16.11;100.00;97665.53;5076005;28;20028;-84
2024/04/07 03:27:57;;;;;;;6.47;3.42;;;;;;;16.10;100.00;97668.34;5011819;28;20121;-82
2024/04/07 03:31:03;;;;;;;5.95;3.65;;;;;;;16.12;100.00;97671.75;5056727;28;20170;-73
2024/04/07 03:33:44;;;;;;;10.70;4.05;;;;;;;16.01;100.00;97678.06;5088456;28;20052;-75
2024/04/07 03:43:18;;;;;;;;;;;;;;;;;;;;;
2024/04/07 03:46:23;;;;;;;10.65;3.50;;;;;;;15.98;100.00;97680.13;5074131;28;20038;-73
2024/04/07 03:49:21;;;;;;;6.20;3.55;;;;;;;15.94;100.00;97681.34;5090572;28;20470;-72
2024/04/07 03:52:13;;;;;;;6.65;3.80;;;;;;;15.96;100.00;97679.41;5065937;28;20141;-72
2024/04/07 03:58:02;;;;;;;6.38;3.83;;;;;;;15.87;100.00;97686.41;5075328;28;20557;-72
2024/04/07 04:01:06;;;;;;;7.20;3.70;;;;;;;15.81;100.00;97691.44;5090100;28;20036;-73
2024/04/07 04:07:05;;;;;;;;;;;;;;;;;;;;;
2024/04/07 04:10:30;;;;;;;;;;;;;;;;;;;;;
2024/04/07 04:13:16;;;;;;;8.30;3.58;;;;;;;15.46;100.00;97711.25;5074915;28;20046;-71
2024/04/07 04:16:17;;;;;;;8.95;4.43;;;;;;;15.43;100.00;97722.28;5089943;28;20032;-73
2024/04/07 04:19:08;;;;;;;12.25;4.40;;;;;;;15.54;100.00;97725.03;5049219;28;20035;-71
2024/04/07 04:22:24;;;;;;;5.95;3.85;;;;;;;15.51;100.00;97730.66;5069460;28;20024;-71
2024/04/07 04:25:32;;;;;;;;;;;;;;;;;;;;;
2024/04/07 04:28:20;;;;;;;7.75;3.80;;;;;;;15.42;100.00;97733.19;5071967;28;20035;-72
2024/04/07 04:34:18;;;;;;;9.82;4.57;;;;;;;15.53;100.00;97727.84;5072959;28;20033;-74
2024/04/07 04:37:36;;;;;;;10.88;4.65;;;;;;;15.54;100.00;97738.50;5011070;28;20039;-74
2024/04/07 04:40:08;;;;;;;12.50;5.28;;;;;;;15.55;100.00;97726.75;5058001;28;20059;-73
2024/04/07 04:43:16;;;;;;;9.27;4.40;;;;;;;15.77;100.00;97728.59;5054257;28;20053;-73
2024/04/07 04:46:27;;;;;;;13.65;4.05;;;;;;;15.92;100.00;97737.28;5058129;28;20058;-74
2024/04/07 04:48:57;;;;;;;5.65;3.72;;;;;;;16.07;100.00;97736.91;5054758;28;20040;-73
2024/04/07 04:51:53;;;;;;;9.60;4.18;;;;;;;16.33;100.00;97740.19;5038595;28;20039;-74
2024/04/07 04:54:59;;;;;;;9.13;4.28;;;;;;;16.68;100.00;97737.28;5072520;28;20170;-73
2024/04/07 04:57:52;;;;;;;13.30;4.10;;;;;;;16.96;100.00;97750.22;5054952;28;20028;-73
2024/04/07 05:00:37;;;;;;;10.60;3.90;;;;;;;17.03;100.00;97743.31;5072916;28;20032;-74
2024/04/07 05:06:33;;;;;;;10.05;3.92;;;;;;;17.31;100.00;97750.78;5050239;28;20047;-77
2024/04/07 05:12:38;;;;;;;8.60;3.88;;;;;;;18.10;100.00;97737.56;5073272;28;20036;-73
2024/04/07 05:15:28;;;;;;;6.97;3.35;;;;;;;18.58;100.00;97733.16;5065862;28;20132;-73
2024/04/07 05:18:09;;;;;;;6.80;3.13;;;;;;;19.06;100.00;97725.06;5075591;28;20059;-73
2024/04/07 05:20:51;;;;;;;5.57;3.45;;;;;;;19.18;100.00;97725.78;5076143;28;20030;-73
2024/04/07 05:23:43;;;;;;;7.50;3.50;;;;;;;19.56;100.00;97733.03;5075215;28;20023;-72
2024/04/07 05:29:35;;;;;;;5.30;3.17;;;;;;;20.29;100.00;97718.66;5092204;28;20032;-74
2024/04/07 05:32:45;;;;;;;6.13;4.13;;;;;;;20.22;100.00;97720.22;5092296;28;20028;-74
2024/04/07 05:35:49;;;;;;;26.50;16.45;;;;;;;20.86;100.00;97712.81;5092446;28;20043;-73
2024/04/07 05:38:39;;;;;;;22.02;13.90;;;;;;;22.64;90.80;97703.97;5074983;28;20115;-71
2024/04/07 05:41:51;;;;;;;11.07;3.30;;;;;;;24.29;75.72;97692.72;5074190;28;20030;-72
2024/04/07 05:44:44;;;;;;;7.93;3.30;;;;;;;26.17;62.50;97679.19;5092164;28;20499;-72
2024/04/07 05:47:17;;;;;;;8.43;3.47;;;;;;;26.63;56.70;97682.53;5054998;28;20036;-73
2024/04/07 05:49:57;;;;;;;5.15;3.33;;;;;;;26.81;56.08;97668.41;5072099;28;20032;-73
2024/04/07 05:52:33;;;;;;;9.00;3.63;;;;;;;27.57;53.43;97664.09;5074154;28;20032;-73
2024/04/07 05:55:47;;;;;;;8.13;3.90;;;;;;;29.05;49.19;97661.59;5092036;28;20043;-73
2024/04/07 05:58:51;;;;;;;9.25;5.88;;;;;;;28.07;49.02;97657.53;5091869;28;20081;-73
2024/04/07 06:01:40;;;;;;;12.35;6.15;;;;;;;29.00;48.06;97655.88;5092197;28;20039;-74
2024/04/07 06:04:17;;;;;;;7.95;4.22;;;;;;;28.46;48.62;97655.00;5107352;28;20028;-73
2024/04/07 06:07:26;;;;;;;13.50;5.15;;;;;;;27.70;49.62;97666.97;5091618;28;20071;-74
2024/04/07 06:17:54;;;;;;;8.25;3.88;;;;;;;29.56;45.57;97678.44;4946452;28;20046;-75
2024/04/07 06:23:28;;;;;;;8.15;3.97;;;;;;;29.97;44.54;97677.41;4956930;28;20437;-75
2024/04/07 06:29:50;;;;;;;8.43;3.92;;;;;;;27.56;47.26;97685.28;5068717;28;20408;-75
2024/04/07 06:32:51;;;;;;;;;;;;;;;;;;;;;
2024/04/07 06:35:35;;;;;;;9.05;3.85;;;;;;;24.49;62.76;97709.53;5071031;28;20036;-74
2024/04/07 06:38:36;;;;;;;;;;;;;;;;;;;;;
2024/04/07 06:41:41;;;;;;;;;;;;;;;;;;;;;
2024/04/07 06:44:29;;;;;;;5.97;4.05;;;;;;;25.57;55.89;97711.28;5055637;28;20035;-75
2024/04/07 06:47:28;;;;;;;7.90;4.28;;;;;;;24.93;59.63;97723.53;5036402;28;20139;-73
2024/04/07 06:50:02;;;;;;;9.30;4.03;;;;;;;25.12;59.64;97728.56;5053419;28;20083;-74
2024/04/07 06:52:35;;;;;;;7.68;4.30;;;;;;;24.67;63.16;97734.78;5070910;28;20024;-72
2024/04/07 06:55:29;;;;;;;;;;;;;;;;;;;;;
2024/04/07 06:59:05;;;;;;;75.30;50.25;;;;;;;22.62;81.81;97744.22;5070500;28;20042;-72
2024/04/07 07:05:35;;;;;;;15.18;4.25;;;;;;;21.74;98.24;97763.66;4983219;28;20509;-73
2024/04/07 07:11:58;;;;;;;19.20;3.92;;;;;;;22.40;92.30;97760.31;5043929;28;20055;-74
2024/04/07 07:14:35;;;;;;;10.48;5.13;;;;;;;22.38;90.98;97765.94;5056780;28;20097;-74
2024/04/07 07:17:42;;;;;;;15.27;8.15;;;;;;;22.06;92.49;97769.34;5072113;28;20039;-74
2024/04/07 07:23:56;;;;;;;13.75;6.20;;;;;;;21.70;95.73;97781.31;5067712;28;20047;-73
2024/04/07 07:27:03;;;;;;;8.80;4.20;;;;;;;21.70;98.70;97784.03;5068514;28;20361;-73
2024/04/07 07:29:56;;;;;;;;;;;;;;;;;;;;;
2024/04/07 07:33:16;;;;;;;7.30;4.90;;;;;;;21.63;98.65;97791.13;5090522;28;20028;-73
2024/04/07 07:39:35;;;;;;;;;;;;;;;;;;;;;
2024/04/07 07:42:37;;;;;;;6.43;3.45;;;;;;;21.78;98.10;97784.09;5037902;28;20042;-75
2024/04/07 07:45:47;;;;;;;;;;;;;;;;;;;;;
2024/04/07 07:51:37;;;;;;;91.25;56.60;;;;;;;21.18;100.00;97783.06;5065773;28;20093;-76
2024/04/07 07:57:31;;;;;;;;;;;;;;;;;;;;;
2024/04/07 08:00:26;;;;;;;15.73;7.32;;;;;;;21.63;92.19;97774.78;5073940;28;20034;-74
2024/04/07 08:06:41;;;;;;;;;;;;;;;;;;;;;
2024/04/07 08:09:14;;;;;;;16.02;8.80;;;;;;;22.77;72.64;97763.56;5090162;28;20034;-74
2024/04/07 08:11:53;;;;;;;4.20;2.45;;;;;;;23.03;67.87;97761.59;5107772;28;20039;-73
2024/04/07 08:14:40;;;;;;;;;;;;;;;;;;;;;
2024/04/07 08:17:52;;;;;;;3.10;1.63;;;;;;;23.22;58.22;97741.31;5093762;28;20035;-73
2024/04/07 08:20:58;;;;;;;2.40;1.50;;;;;;;23.98;56.13;97732.78;5080571;28;20036;-73
2024/04/07 08:26:53;;;;;;;6.20;2.65;;;;;;;24.99;51.51;97739.25;5073801;28;20062;-73
2024/04/07 08:36:18;;;;;;;9.75;5.43;;;;;;;27.10;45.66;97734.22;5010834;28;20138;-73
2024/04/07 08:42:19;;;;;;;12.88;9.05;;;;;;;26.84;45.25;97722.94;5002988;28;20422;-72
2024/04/07 08:45:00;;;;;;;7.40;1.70;;;;;;;26.99;44.26;97737.47;5069286;28;20044;-74
2024/04/07 08:48:21;;;;;;;3.93;1.93;;;;;;;26.12;45.89;97750.16;5093274;28;20479;-71
2024/04/07 08:51:04;;;;;;;;;;;;;;;;;;;;;
2024/04/07 08:53:54;;;;;;;3.72;1.73;;;;;;;24.37;48.93;97755.59;5076273;28;20040;-74
2024/04/07 08:57:12;;;;;;;3.65;1.50;;;;;;;24.31;49.74;97763.63;5077515;28;20043;-74
2024/04/07 08:59:50;;;;;;;4.07;2.15;;;;;;;23.64;50.89;97763.91;5057023;28;20070;-74
2024/04/07 09:02:32;;;;;;;3.00;1.38;;;;;;;23.51;52.47;97765.41;5075629;28;20028;-74
2024/04/07 09:05:28;;;;;;;3.63;1.90;;;;;;;22.89;54.17;97777.75;5058054;28;20046;-73
2024/04/07 09:12:08;;;;;;;3.00;1.48;;;;;;;22.40;57.30;97782.13;5083174;28;20066;-72
2024/04/07 09:15:18;;;;;;;4.65;2.25;;;;;;;22.35;57.44;97800.84;5070028;28;20067;-72
2024/04/07 09:17:59;;;;;;;7.13;3.45;;;;;;;21.92;62.09;97809.94;4982859;28;20042;-72
2024/04/07 09:20:34;;;;;;;5.60;2.30;;;;;;;21.82;63.95;97807.28;5074646;28;20031;-72
2024/04/07 09:27:05;;;;;;;2.53;1.98;;;;;;;21.44;66.57;97810.38;5092208;28;20028;-72
2024/04/07 09:33:11;;;;;;;8.07;2.25;;;;;;;21.98;63.50;97810.16;5073472;28;20032;-72
2024/04/07 09:36:15;;;;;;;;;;;;;;;;;;;;;
2024/04/07 09:42:30;;;;;;;6.47;1.67;;;;;;;23.49;55.09;97808.44;5091893;28;20036;-72
2024/04/07 09:45:00;;;;;;;2.85;1.60;;;;;;;23.56;54.14;97799.38;5074286;28;20027;-71
2024/04/07 09:48:01;;;;;;;5.00;1.20;;;;;;;23.64;53.42;97795.81;5063354;28;20040;-71
2024/04/07 09:53:57;;;;;;;3.45;1.38;;;;;;;23.89;52.77;97813.06;5076456;28;20028;-71
2024/04/07 09:56:42;;;;;;;4.40;1.60;;;;;;;23.82;54.00;97814.75;5091799;28;20024;-72
2024/04/07 09:59:49;;;;;;;;;;;;;;;;;;;;;
2024/04/07 10:02:35;;;;;;;4.60;1.67;;;;;;;23.66;55.12;97819.22;5075380;28;20038;-72
2024/04/07 10:05:08;;;;;;;1.67;1.48;;;;;;;23.70;55.17;97817.00;5074033;28;20020;-73
2024/04/07 10:08:34;;;;;;;1.30;1.20;;;;;;;23.20;57.17;97820.66;5033157;28;20143;-74
2024/04/07 10:11:39;;;;;;;4.22;1.67;;;;;;;22.35;64.09;97848.03;5048454;28;20132;-72
2024/04/07 10:14:51;;;;;;;;;;;;;;;;;;;;;
2024/04/07 10:24:45;;;;;;;4.60;1.40;;;;;;;23.30;54.79;97846.94;5062776;28;20063;-72
2024/04/07 10:27:34;;;;;;;5.78;1.50;;;;;;;23.67;52.08;97837.31;5045002;28;20535;-72
2024/04/07 10:33:55;;;;;;;4.60;1.10;;;;;;;23.88;50.29;97853.19;5018516;28;20067;-72
2024/04/07 10:36:54;;;;;;;48.50;26.05;;;;;;;24.60;48.65;97841.34;5025947;28;20036;-73
2024/04/07 10:43:06;;;;;;;4.07;2.20;;;;;;;25.24;47.13;97840.25;5047898;28;20046;-72
2024/04/07 10:45:53;;;;;;;1.13;0.95;;;;;;;25.17;45.79;97836.50;5073242;28;20157;-72
2024/04/07 10:48:29;;;;;;;3.70;1.02;;;;;;;24.66;47.09;97848.00;5052088;28;20135;-73
2024/04/07 10:51:27;;;;;;;1.42;1.10;;;;;;;25.34;46.43;97846.38;5073562;28;20035;-73
2024/04/07 10:54:36;;;;;;;;;;;;;;;;;;;;;
2024/04/07 10:57:55;;;;;;;;;;;;;;;;;;;;;
2024/04/07 11:00:43;;;;;;;2.38;1.20;;;;;;;28.65;39.71;97813.13;5064214;28;20517;-73
2024/04/07 11:03:53;;;;;;;3.10;1.48;;;;;;;27.31;40.84;97821.34;5071966;28;20040;-73
2024/04/07 11:07:02;;;;;;;;;;;;;;;;;;;;;
2024/04/07 11:09:59;;;;;;;4.90;2.15;;;;;;;25.31;44.89;97826.69;5090604;28;20395;-72
2024/04/07 11:12:54;;;;;;;3.70;2.53;;;;;;;24.60;46.63;97824.09;5072358;28;20040;-72
2024/04/07 11:18:53;;;;;;;3.30;1.60;;;;;;;23.95;48.33;97828.78;5075305;28;20411;-72
2024/04/07 11:21:48;;;;;;;5.55;1.70;;;;;;;24.07;48.86;97827.41;5090456;28;20479;-71
2024/04/07 11:25:10;;;;;;;;;;;;;;;;;;;;;
2024/04/07 11:28:28;;;;;;;3.72;2.50;;;;;;;23.91;47.82;97816.47;5088798;28;20121;-72
2024/04/07 11:37:37;;;;;;;1.95;1.50;;;;;;;26.78;44.17;97800.53;5093158;28;20028;-73
2024/04/07 11:40:40;;;;;;;;;;;;;;;;;;;;;
2024/04/07 11:43:55;;;;;;;2.55;1.52;;;;;;;29.23;38.24;97785.03;5078150;28;20024;-74
2024/04/07 11:46:50;;;;;;;4.57;1.38;;;;;;;31.50;36.25;97768.78;5079083;28;20097;-73
2024/04/07 11:49:52;;;;;;;3.15;1.55;;;;;;;29.89;36.64;97768.69;5094575;28;20387;-73
2024/04/07 11:52:43;;;;;;;;;;;;;;;29.39;36.55;97770.91;5077805;28;20047;-73
2024/04/07 11:55:37;;;;;;;5.55;1.33;;;;;;;29.45;36.31;97769.22;5077264;28;19919;-71
2024/04/07 11:58:25;;;;;;;2.40;1.13;;;;;;;28.14;38.44;97772.09;5076679;28;20071;-73
2024/04/07 12:01:37;;;;;;;;;;;;;;;;;;;;;
2024/04/07 12:04:38;;;;;;;2.50;1.40;;;;;;;31.30;34.73;97752.25;5094217;28;20020;-73
2024/04/07 12:07:27;;;;;;;2.45;1.30;;;;;;;32.46;32.83;97747.16;5067950;28;20043;-73
2024/04/07 12:10:12;;;;;;;5.07;1.50;;;;;;;33.21;32.61;97752.34;5093762;28;20077;-73
2024/04/07 12:13:02;;;;;;;4.70;1.60;;;;;;;34.18;30.68;97748.34;5075488;28;20039;-74
2024/04/07 12:16:19;;;;;;;4.15;1.50;;;;;;;30.77;34.17;97745.22;5075867;28;20515;-74
2024/04/07 12:18:59;;;;;;;3.63;1.27;;;;;;;31.51;34.15;97749.19;5058037;28;20028;-72
2024/04/07 12:22:21;;;;;;;1.48;1.02;;;;;;;31.65;33.36;97748.06;5055699;28;20435;-73
2024/04/07 12:25:25;;;;;;;;;;;;;;;;;;;;;
2024/04/07 12:41:23;;;;;;;11.20;2.58;;;;;;;30.60;34.51;97748.47;5073032;28;20047;-72
2024/04/07 12:44:20;;;;;;;6.72;2.40;;;;;;;30.55;34.98;97742.75;5006400;28;20041;-74
2024/04/07 12:47:22;;;;;;;;;;;;;;;;;;;;;
2024/04/07 12:50:24;;;;;;;5.30;1.88;;;;;;;27.99;37.93;97765.81;5072791;28;20024;-73
2024/04/07 12:53:00;;;;;;;4.55;2.15;;;;;;;26.86;39.42;97775.75;5072542;28;20403;-73
2024/04/07 12:56:03;;;;;;;1.63;1.50;;;;;;;25.74;41.16;97786.84;5055530;28;20341;-72
2024/04/07 12:59:02;;;;;;;1.60;1.40;;;;;;;24.69;43.57;97785.56;5055394;28;20055;-73
2024/04/07 13:01:58;;;;;;;3.58;1.90;;;;;;;25.59;41.96;97788.69;5032881;28;20503;-72
2024/04/07 13:05:10;;;;;;;3.47;1.35;;;;;;;27.76;38.08;97762.41;5055749;28;20431;-73
2024/04/07 13:07:57;;;;;;;;;;;;;;;;;;;;;
2024/04/07 13:10:59;;;;;;;2.90;1.70;;;;;;;30.96;34.21;97738.81;5056357;28;20041;-73
2024/04/07 13:13:52;;;;;;;10.13;2.35;;;;;;;30.80;34.15;97751.16;5054507;28;20047;-75
2024/04/07 13:20:03;;;;;;;8.32;1.50;;;;;;;29.04;35.94;97758.22;5078061;28;20036;-73
2024/04/07 13:22:56;;;;;;;2.55;1.17;;;;;;;29.52;34.02;97756.31;5087532;28;20495;-74
2024/04/07 13:34:58;;;;;;;3.40;1.90;;;;;;;25.01;40.97;97778.28;5092088;28;20031;-73
2024/04/07 13:37:58;;;;;;;13.10;1.63;;;;;;;25.67;38.72;97774.91;5089521;28;20035;-74
2024/04/07 13:40:42;;;;;;;3.42;1.67;;;;;;;26.57;37.40;97770.28;5091989;28;20028;-73
2024/04/07 13:43:26;;;;;;;2.53;1.40;;;;;;;27.45;36.10;97760.84;5074860;28;20506;-74
2024/04/07 13:46:45;;;;;;;;;;;;;;;;;;;;;
2024/04/07 13:50:03;;;;;;;5.82;1.40;;;;;;;26.05;38.54;97773.91;5092138;28;20487;-74
2024/04/07 13:53:09;;;;;;;;;;;;;;;;;;;;;
2024/04/07 13:55:51;;;;;;;6.35;2.45;;;;;;;26.82;38.29;97767.06;4987222;28;20040;-73
2024/04/07 14:05:00;;;;;;;4.15;1.38;;;;;;;29.61;32.86;97759.69;5066086;28;20582;-73
2024/04/07 14:14:43;;;;;;;;;;;;;;;;;;;;;
2024/04/07 14:17:41;;;;;;;3.70;1.90;;;;;;;27.57;35.90;97763.06;5084021;28;20051;-73
2024/04/07 14:20:48;;;;;;;2.83;1.52;;;;;;;26.92;35.65;97753.88;5091659;28;20031;-72
2024/04/07 14:23:47;;;;;;;2.47;1.50;;;;;;;26.48;37.61;97775.00;5089761;28;20178;-71
2024/04/07 14:26:50;;;;;;;14.10;2.17;;;;;;;25.42;38.06;97776.09;5082685;28;20031;-73
2024/04/07 14:32:51;;;;;;;2.97;1.50;;;;;;;24.59;37.98;97775.84;5048598;28;20100;-72
2024/04/07 14:35:50;;;;;;;5.57;1.30;;;;;;;24.28;38.10;97775.78;5091420;28;20074;-72
2024/04/07 14:38:26;;;;;;;1.70;1.20;;;;;;;24.32;37.94;97774.41;5088321;28;20391;-73
2024/04/07 14:41:02;;;;;;;2.40;1.25;;;;;;;24.01;39.46;97793.41;5061016;28;20499;-72
2024/04/07 14:43:41;;;;;;;2.17;1.80;;;;;;;23.38;40.69;97784.19;5035413;28;20135;-71
2024/04/07 14:46:45;;;;;;;2.72;1.50;;;;;;;23.21;39.23;97792.34;5053601;28;20039;-71
2024/04/07 14:49:25;;;;;;;6.18;1.77;;;;;;;22.92;39.31;97791.91;5052462;28;20051;-72
2024/04/07 14:52:14;;;;;;;4.90;1.67;;;;;;;22.52;39.34;97805.34;5070664;28;20464;-72
2024/04/07 14:58:40;;;;;;;12.55;3.85;;;;;;;22.05;40.39;97815.84;5070953;28;20067;-72
2024/04/07 15:01:37;;;;;;;6.43;3.95;;;;;;;21.78;40.18;97814.03;5071012;28;20051;-73
2024/04/07 15:04:31;;;;;;;3.92;2.05;;;;;;;21.41;41.02;97816.13;5070587;28;20043;-73
2024/04/07 15:07:15;;;;;;;5.25;1.33;;;;;;;21.27;42.21;97824.81;5070542;28;20056;-73
2024/04/07 15:09:52;;;;;;;2.20;1.00;;;;;;;21.27;42.38;97825.69;5036636;28;20123;-73
2024/04/07 15:12:32;;;;;;;1.80;1.40;;;;;;;21.31;42.24;97829.81;5070198;28;20024;-74
2024/04/07 15:15:35;;;;;;;7.47;1.70;;;;;;;21.28;42.25;97834.69;5028273;28;20045;-72
2024/04/07 15:22:00;;;;;;;4.30;1.33;;;;;;;21.25;41.18;97854.06;5055007;28;20133;-72
2024/04/07 15:24:42;;;;;;;14.43;2.15;;;;;;;21.15;41.65;97859.56;5051738;28;20052;-72
2024/04/07 15:27:35;;;;;;;5.32;2.33;;;;;;;21.11;42.53;97857.28;5050768;28;20047;-72
2024/04/07 15:33:55;;;;;;;;;;;;;;;;;;;;;
2024/04/07 15:37:19;;;;;;;;;;;;;;;;;;;;;
2024/04/07 15:40:13;;;;;;;1.98;1.35;;;;;;;20.90;42.17;97860.25;5067868;28;20055;-72
2024/04/07 15:43:06;;;;;;;3.47;1.90;;;;;;;20.86;42.97;97854.25;5042276;28;20051;-72
2024/04/07 15:46:10;;;;;;;3.00;1.63;;;;;;;20.72;43.49;97853.91;5052075;28;20037;-72
2024/04/07 15:49:11;;;;;;;;;;;;;;;;;;;;;
2024/04/07 15:51:50;;;;;;;2.20;1.58;;;;;;;20.69;43.82;97863.22;5083111;28;20036;-72
2024/04/07 15:54:47;;;;;;;1.75;1.35;;;;;;;20.67;44.36;97870.69;5113929;28;20130;-72
2024/04/07 15:57:49;;;;;;;3.92;1.83;;;;;;;20.63;43.93;97868.41;5100819;28;20032;-72
2024/04/07 16:00:28;;;;;;;2.42;1.73;;;;;;;20.55;44.43;97885.44;5092137;28;20037;-72
2024/04/07 16:03:24;;;;;;;3.80;1.10;;;;;;;20.47;43.80;97877.19;5076151;28;20122;-73
2024/04/07 16:06:11;;;;;;;7.82;3.45;;;;;;;20.43;44.78;97889.34;5082402;28;20039;-73
2024/04/07 16:09:05;;;;;;;3.30;2.55;;;;;;;20.31;45.04;97890.53;5110492;28;20027;-72
2024/04/07 16:12:16;;;;;;;;;;;;;;;;;;;;;
2024/04/07 16:15:11;;;;;;;;;;;;;;;;;;;;;
2024/04/07 16:21:08;;;;;;;;;;;;;;;;;;;;;
2024/04/07 16:24:12;;;;;;;3.78;1.65;;;;;;;19.83;47.04;97891.44;5095206;28;20417;-73
2024/04/07 16:27:00;;;;;;;4.45;1.42;;;;;;;19.78;47.23;97896.44;5113400;28;20031;-73
2024/04/07 16:29:48;;;;;;;2.70;1.50;;;;;;;19.71;47.61;97892.59;5113955;28;20080;-74
2024/04/07 16:32:54;;;;;;;;;;;;;;;;;;;;;
2024/04/07 16:35:46;;;;;;;6.57;2.30;;;;;;;19.53;47.99;97905.16;5114974;27;20035;-74
2024/04/07 16:38:31;;;;;;;6.60;1.48;;;;;;;19.42;48.59;97910.72;5117958;27;20228;-75
2024/04/07 16:41:09;;;;;;;7.30;1.65;;;;;;;19.22;50.00;97914.38;5114933;27;20088;-74
2024/04/07 16:44:08;;;;;;;;;;;;;;;;;;;;;
2024/04/07 16:47:21;;;;;;;;;;;;;;;;;;;;;
2024/04/07 16:50:15;;;;;;;2.05;1.35;;;;;;;18.76;55.82;97936.63;5107842;28;20053;-75
2024/04/07 17:00:37;;;;;;;;;;;;;;;;;;;;;
2024/04/07 17:03:18;;;;;;;2.70;1.95;;;;;;;18.27;63.75;97942.75;5021898;28;20646;-74
2024/04/07 17:06:08;;;;;;;2.88;1.77;;;;;;;18.15;64.34;97943.81;5083511;27;20504;-74
2024/04/07 17:09:22;;;;;;;13.13;7.35;;;;;;;18.13;66.88;97954.75;5134017;27;20023;-74
2024/04/07 17:12:33;;;;;;;;;;;;;;;;;;;;;
2024/04/07 17:15:30;;;;;;;;;;;;;;;;;;;;;
2024/04/07 17:18:28;;;;;;;2.55;1.77;;;;;;;17.81;68.37;97960.19;5116787;27;20042;-75
2024/04/07 17:21:31;;;;;;;3.63;1.90;;;;;;;17.71;72.04;97975.53;5095169;28;20583;-74
2024/04/07 17:24:13;;;;;;;3.22;1.95;;;;;;;17.56;73.91;97982.22;5112427;28;20140;-73
2024/04/07 17:26:57;;;;;;;2.83;1.60;;;;;;;17.50;82.04;97985.41;5094548;28;20127;-73
2024/04/07 17:33:07;;;;;;;3.00;1.65;;;;;;;17.24;78.94;97998.34;5112549;28;20024;-73
2024/04/07 17:35:41;;;;;;;5.00;1.77;;;;;;;17.18;82.07;98004.25;5077952;28;20062;-76
2024/04/07 17:38:23;;;;;;;2.25;1.70;;;;;;;17.05;81.88;98000.81;5077986;28;20031;-75
2024/04/07 17:41:26;;;;;;;2.80;1.88;;;;;;;17.16;84.16;98017.06;5122760;27;20046;-76
2024/04/07 17:47:56;;;;;;;5.93;1.70;;;;;;;16.86;87.42;98018.66;5124568;27;20516;-76
2024/04/07 17:50:53;;;;;;;5.35;2.10;;;;;;;16.62;90.87;98002.53;5062317;27;20031;-75
2024/04/07 17:53:32;;;;;;;10.45;3.17;;;;;;;16.64;90.97;98031.13;5114492;27;20075;-76
2024/04/07 17:56:13;;;;;;;5.32;3.10;;;;;;;16.47;95.80;98028.88;5132987;27;20023;-76
2024/04/07 18:02:10;;;;;;;;;;;;;;;;;;;;;
2024/04/07 18:04:48;;;;;;;;;;;;;;;;;;;;;
2024/04/07 18:07:53;;;;;;;6.47;3.47;;;;;;;15.99;100.00;98062.34;5115784;27;20039;-74
2024/04/07 18:10:39;;;;;;;11.73;5.32;;;;;;;15.89;100.00;98080.19;5132319;27;20077;-72
2024/04/07 18:13:37;;;;;;;8.90;4.82;;;;;;;15.84;100.00;98068.88;5132621;27;20042;-72
2024/04/07 18:23:15;;;;;;;33.47;11.27;;;;;;;15.37;100.00;98077.75;5116942;27;20226;-74
2024/04/07 18:25:55;;;;;;;;;;;;;;;;;;;;;
2024/04/07 18:29:00;;;;;;;;;;;;;;;;;;;;;
2024/04/07 18:32:01;;;;;;;7.38;4.30;;;;;;;15.01;100.00;98102.81;5132003;27;20039;-73
2024/04/07 18:35:00;;;;;;;5.63;3.10;;;;;;;14.91;100.00;98101.72;5131430;27;20088;-73
2024/04/07 18:37:55;;;;;;;;;;;;;;;;;;;;;
2024/04/07 18:40:39;;;;;;;7.63;3.00;;;;;;;14.64;100.00;98113.44;5132459;27;20394;-72
2024/04/07 18:43:48;;;;;;;6.60;3.20;;;;;;;14.48;100.00;98122.72;5132073;27;20033;-73
2024/04/07 18:46:49;;;;;;;18.75;4.93;;;;;;;14.52;100.00;98125.06;5114227;27;20122;-72
2024/04/07 18:50:05;;;;;;;31.27;17.95;;;;;;;14.49;100.00;98125.28;5096433;27;20030;-72
2024/04/07 18:53:14;;;;;;;12.52;6.13;;;;;;;14.41;100.00;98124.09;5105732;28;20178;-74
2024/04/07 18:56:11;;;;;;;9.65;4.43;;;;;;;14.37;100.00;98122.56;5086970;28;20115;-71
2024/04/07 18:59:02;;;;;;;7.65;4.05;;;;;;;14.23;100.00;98120.78;5088006;28;20038;-72
2024/04/07 19:01:44;;;;;;;7.07;3.92;;;;;;;14.20;100.00;98114.75;5108454;28;20127;-72
2024/04/07 19:04:52;;;;;;;6.40;3.70;;;;;;;14.16;100.00;98114.06;5108345;28;20068;-72